createdAt,value
2022-11-13T00:01:12.255Z,6.70
2022-11-13T00:03:39.110Z,6.70
2022-11-13T00:06:06.473Z,6.70
2022-11-13T00:08:33.768Z,6.70
2022-11-13T00:11:02.452Z,6.60
2022-11-13T00:13:30.698Z,6.50
2022-11-13T00:16:02.238Z,6.50
2022-11-13T00:18:31.380Z,6.50
2022-11-13T00:21:04.306Z,6.50
2022-11-13T00:23:34.801Z,6.40
2022-11-13T00:26:09.715Z,6.40
2022-11-13T00:28:36.618Z,6.40
2022-11-13T00:31:05.621Z,6.40
2022-11-13T00:34:01.960Z,6.30
2022-11-13T00:36:26.396Z,6.30
2022-11-13T00:38:54.184Z,6.30
2022-11-13T00:41:21.188Z,6.30
2022-11-13T00:43:48.062Z,6.30
2022-11-13T00:46:14.909Z,6.30
2022-11-13T00:48:41.769Z,6.30
2022-11-13T00:51:08.660Z,6.30
2022-11-13T00:53:35.473Z,6.20
2022-11-13T00:56:02.758Z,6.20
2022-11-13T00:58:29.951Z,6.10
2022-11-13T01:01:08.909Z,6.20
2022-11-13T01:03:36.041Z,6.10
2022-11-13T01:06:11.208Z,6.10
2022-11-13T01:08:38.166Z,6.10
2022-11-13T01:11:10.869Z,6.00
2022-11-13T01:13:38.891Z,6.00
2022-11-13T01:16:07.743Z,6.00
2022-11-13T01:18:35.187Z,5.90
2022-11-13T01:21:15.868Z,5.90
2022-11-13T01:23:43.007Z,5.90
2022-11-13T01:26:17.976Z,5.90
2022-11-13T01:28:45.850Z,5.90
2022-11-13T01:31:25.400Z,5.80
2022-11-13T01:33:52.485Z,5.80
2022-11-13T01:36:22.431Z,5.90
2022-11-13T01:38:50.224Z,5.90
2022-11-13T01:41:45.229Z,5.90
2022-11-13T01:44:15.065Z,6.00
2022-11-13T01:46:46.500Z,6.10
2022-11-13T01:49:38.140Z,6.10
2022-11-13T01:52:09.991Z,6.10
2022-11-13T01:54:48.505Z,6.10
2022-11-13T01:57:16.786Z,6.10
2022-11-13T01:59:50.100Z,6.10
2022-11-13T02:02:16.955Z,6.00
2022-11-13T02:04:44.704Z,6.00
2022-11-13T02:07:15.080Z,6.00
2022-11-13T02:09:48.134Z,6.00
2022-11-13T02:12:19.074Z,6.10
2022-11-13T02:14:53.934Z,6.10
2022-11-13T02:17:45.961Z,6.20
2022-11-13T02:20:13.880Z,6.20
2022-11-13T02:22:49.903Z,6.20
2022-11-13T02:25:18.111Z,6.20
2022-11-13T02:27:47.673Z,6.20
2022-11-13T02:30:27.267Z,6.20
2022-11-13T02:32:57.002Z,6.20
2022-11-13T02:35:32.866Z,6.20
2022-11-13T02:38:02.191Z,6.20
2022-11-13T02:40:29.036Z,6.20
2022-11-13T02:42:56.098Z,6.20
2022-11-13T02:45:23.374Z,6.20
2022-11-13T02:47:50.450Z,6.20
2022-11-13T02:50:18.239Z,6.10
2022-11-13T02:52:45.090Z,6.20
2022-11-13T02:55:11.971Z,6.20
2022-11-13T02:57:38.796Z,6.20
2022-11-13T03:00:10.662Z,6.20
2022-11-13T03:02:40.918Z,6.20
2022-11-13T03:05:13.337Z,6.00
2022-11-13T03:07:41.186Z,5.90
2022-11-13T03:10:09.232Z,5.70
2022-11-13T03:12:36.228Z,5.60
2022-11-13T03:15:03.740Z,5.40
2022-11-13T03:17:34.488Z,5.40
2022-11-13T03:20:01.427Z,5.40
2022-11-13T03:22:28.449Z,5.50
2022-11-13T03:24:55.277Z,5.60
2022-11-13T03:27:22.436Z,5.70
2022-11-13T03:29:49.268Z,5.70
2022-11-13T03:32:16.529Z,5.70
2022-11-13T03:34:43.462Z,5.80
2022-11-13T03:37:10.286Z,5.80
2022-11-13T03:39:37.068Z,5.90
2022-11-13T03:42:03.946Z,5.80
2022-11-13T03:44:30.749Z,5.90
2022-11-13T03:46:57.552Z,5.90
2022-11-13T03:49:24.393Z,5.90
2022-11-13T03:51:51.193Z,5.90
2022-11-13T03:54:18.161Z,5.80
2022-11-13T03:56:44.956Z,5.80
2022-11-13T03:59:11.764Z,5.80
2022-11-13T04:01:38.640Z,5.80
2022-11-13T04:04:05.649Z,5.80
2022-11-13T04:06:32.593Z,5.80
2022-11-13T04:08:59.412Z,5.80
2022-11-13T04:11:26.213Z,5.80
2022-11-13T04:13:52.996Z,5.80
2022-11-13T04:16:19.845Z,5.80
2022-11-13T04:18:46.672Z,5.80
2022-11-13T04:21:13.481Z,5.80
2022-11-13T04:23:40.269Z,5.70
2022-11-13T04:26:07.138Z,5.70
2022-11-13T04:28:33.995Z,5.60
2022-11-13T04:31:00.810Z,5.60
2022-11-13T04:33:27.706Z,5.60
2022-11-13T04:35:54.555Z,5.60
2022-11-13T04:38:21.491Z,5.60
2022-11-13T04:41:11.519Z,5.50
2022-11-13T04:43:38.322Z,5.50
2022-11-13T04:46:05.267Z,5.50
2022-11-13T04:48:32.086Z,5.50
2022-11-13T04:50:59.132Z,5.40
2022-11-13T04:53:25.953Z,5.40
2022-11-13T04:55:53.631Z,5.30
2022-11-13T04:58:20.432Z,5.30
2022-11-13T05:00:47.248Z,5.30
2022-11-13T05:03:14.052Z,5.30
2022-11-13T05:05:40.868Z,5.30
2022-11-13T05:08:07.684Z,5.30
2022-11-13T05:10:34.485Z,5.30
2022-11-13T05:13:01.369Z,5.30
2022-11-13T05:15:28.215Z,5.30
2022-11-13T05:17:55.034Z,5.30
2022-11-13T05:20:21.880Z,5.20
2022-11-13T05:22:48.697Z,5.30
2022-11-13T05:25:15.539Z,5.30
2022-11-13T05:27:42.715Z,5.30
2022-11-13T05:30:09.822Z,5.20
2022-11-13T05:32:36.637Z,5.30
2022-11-13T05:35:03.613Z,5.30
2022-11-13T05:37:30.437Z,5.40
2022-11-13T05:39:57.258Z,5.30
2022-11-13T05:42:24.054Z,5.30
2022-11-13T05:44:50.914Z,5.30
2022-11-13T05:47:17.706Z,5.30
2022-11-13T05:49:44.520Z,5.30
2022-11-13T05:52:11.368Z,5.30
2022-11-13T05:54:38.809Z,5.40
2022-11-13T05:57:05.611Z,5.40
2022-11-13T05:59:32.454Z,5.40
2022-11-13T06:01:59.283Z,5.40
2022-11-13T06:04:26.129Z,5.40
2022-11-13T06:06:53.029Z,5.40
2022-11-13T06:09:19.881Z,5.40
2022-11-13T06:11:46.756Z,5.30
2022-11-13T06:14:13.640Z,5.30
2022-11-13T06:16:40.574Z,5.20
2022-11-13T06:19:10.439Z,5.30
2022-11-13T06:21:39.760Z,5.40
2022-11-13T06:24:07.781Z,5.40
2022-11-13T06:26:35.921Z,5.50
2022-11-13T06:29:04.954Z,5.50
2022-11-13T06:31:34.750Z,5.60
2022-11-13T06:34:01.975Z,5.70
2022-11-13T06:36:31.437Z,5.80
2022-11-13T06:38:59.050Z,5.80
2022-11-13T06:41:29.570Z,5.80
2022-11-13T06:44:02.738Z,5.80
2022-11-13T06:46:30.630Z,5.90
2022-11-13T06:48:58.148Z,5.90
2022-11-13T06:51:28.098Z,6.00
2022-11-13T06:53:55.253Z,6.00
2022-11-13T06:56:22.152Z,6.10
2022-11-13T06:58:49.675Z,6.00
2022-11-13T07:01:19.270Z,6.00
2022-11-13T07:03:46.231Z,6.10
2022-11-13T07:06:21.168Z,6.20
2022-11-13T07:08:48.656Z,6.30
2022-11-13T07:11:18.378Z,6.40
2022-11-13T07:13:45.972Z,6.40
2022-11-13T07:16:17.374Z,6.40
2022-11-13T07:18:54.391Z,6.40
2022-11-13T07:21:22.211Z,6.60
2022-11-13T07:23:50.213Z,6.70
2022-11-13T07:26:17.142Z,6.70
2022-11-13T07:28:44.012Z,6.80
2022-11-13T07:31:13.065Z,6.80
2022-11-13T07:33:40.131Z,6.80
2022-11-13T07:36:08.333Z,6.80
2022-11-13T07:38:35.441Z,6.90
2022-11-13T07:41:02.587Z,6.90
2022-11-13T07:43:29.869Z,7.00
2022-11-13T07:45:58.973Z,7.10
2022-11-13T07:48:27.911Z,7.10
2022-11-13T07:50:55.444Z,7.10
2022-11-13T07:53:23.129Z,7.20
2022-11-13T07:55:50.085Z,7.20
2022-11-13T07:58:17.032Z,7.30
2022-11-13T08:00:44.063Z,7.40
2022-11-13T08:03:17.233Z,7.50
2022-11-13T08:05:44.417Z,7.60
2022-11-13T08:08:15.609Z,7.60
2022-11-13T08:10:42.969Z,7.70
2022-11-13T08:13:11.225Z,7.80
2022-11-13T08:15:38.682Z,7.90
2022-11-13T08:18:06.427Z,7.90
2022-11-13T08:20:33.428Z,8.00
2022-11-13T08:23:02.424Z,8.10
2022-11-13T08:25:30.389Z,8.10
2022-11-13T08:27:58.153Z,8.20
2022-11-13T08:30:26.690Z,8.20
2022-11-13T08:32:53.567Z,8.30
2022-11-13T08:35:23.987Z,8.40
2022-11-13T08:37:53.540Z,8.50
2022-11-13T08:40:20.366Z,8.50
2022-11-13T08:42:47.210Z,8.60
2022-11-13T08:45:14.051Z,8.70
2022-11-13T08:47:40.879Z,8.60
2022-11-13T08:50:08.189Z,8.60
2022-11-13T08:52:35.147Z,8.70
2022-11-13T08:55:02.196Z,8.80
2022-11-13T08:57:29.082Z,8.90
2022-11-13T08:59:55.932Z,9.00
2022-11-13T09:02:22.783Z,9.10
2022-11-13T09:04:49.546Z,9.10
2022-11-13T09:07:16.558Z,9.20
2022-11-13T09:09:43.494Z,9.20
2022-11-13T09:12:10.374Z,9.30
2022-11-13T09:14:37.314Z,9.40
2022-11-13T09:17:04.267Z,9.50
2022-11-13T09:19:31.118Z,9.60
2022-11-13T09:21:58.132Z,9.70
2022-11-13T09:24:24.966Z,9.80
2022-11-13T09:26:51.783Z,9.80
2022-11-13T09:29:18.680Z,9.90
2022-11-13T09:31:46.143Z,9.90
2022-11-13T09:34:12.971Z,10.00
2022-11-13T09:36:41.292Z,10.10
2022-11-13T09:39:08.292Z,10.20
2022-11-13T09:41:40.139Z,10.30
2022-11-13T09:44:14.917Z,10.30
2022-11-13T09:46:55.488Z,10.40
2022-11-13T09:49:36.961Z,10.60
2022-11-13T09:52:09.858Z,10.70
2022-11-13T09:54:36.985Z,10.70
2022-11-13T09:57:34.566Z,10.70
2022-11-13T10:00:10.788Z,10.80
2022-11-13T10:02:49.133Z,10.80
2022-11-13T10:05:27.586Z,10.90
2022-11-13T10:08:18.820Z,10.90
2022-11-13T10:10:56.276Z,11.00
2022-11-13T10:13:43.593Z,11.10
2022-11-13T10:16:24.958Z,11.20
2022-11-13T10:18:54.291Z,11.30
2022-11-13T10:21:34.099Z,11.20
2022-11-13T10:24:06.632Z,11.20
2022-11-13T10:26:36.892Z,11.20
2022-11-13T10:29:15.963Z,11.30
2022-11-13T10:31:48.955Z,11.50
2022-11-13T10:34:17.376Z,11.50
2022-11-13T10:37:34.105Z,11.60
2022-11-13T10:40:00.892Z,11.60
2022-11-13T10:42:31.718Z,11.70
2022-11-13T10:45:00.427Z,11.90
2022-11-13T10:47:57.331Z,11.90
2022-11-13T10:50:27.328Z,11.90
2022-11-13T10:52:56.237Z,11.90
2022-11-13T10:55:35.814Z,11.90
2022-11-13T10:58:10.991Z,12.00
2022-11-13T11:00:41.480Z,12.10
2022-11-13T11:03:13.793Z,12.30
2022-11-13T11:05:51.141Z,12.30
2022-11-13T11:08:18.485Z,12.40
2022-11-13T11:11:18.608Z,12.50
2022-11-13T11:13:45.717Z,12.50
2022-11-13T11:16:22.685Z,12.60
2022-11-13T11:18:57.911Z,12.50
2022-11-13T11:21:37.407Z,12.50
2022-11-13T11:24:15.320Z,12.50
2022-11-13T11:26:52.491Z,12.50
2022-11-13T11:29:43.624Z,12.50
2022-11-13T11:32:43.739Z,12.60
2022-11-13T11:35:25.125Z,12.50
2022-11-13T11:38:08.960Z,12.50
2022-11-13T11:40:43.200Z,12.50
2022-11-13T11:43:42.884Z,12.50
2022-11-13T11:46:13.191Z,12.50
2022-11-13T11:48:40.890Z,12.60
2022-11-13T11:51:47.016Z,12.50
2022-11-13T11:54:38.199Z,12.50
2022-11-13T11:57:20.261Z,12.50
2022-11-13T11:59:59.468Z,12.60
2022-11-13T12:02:26.252Z,12.60
2022-11-13T12:05:01.461Z,12.60
2022-11-13T12:08:12.311Z,12.60
2022-11-13T12:10:56.966Z,12.60
2022-11-13T12:13:57.490Z,12.60
2022-11-13T12:16:25.501Z,12.70
2022-11-13T12:19:01.303Z,12.70
2022-11-13T12:21:49.646Z,12.80
2022-11-13T12:24:22.303Z,12.70
2022-11-13T12:26:59.172Z,12.80
2022-11-13T12:29:54.511Z,12.80
2022-11-13T12:32:51.104Z,12.80
2022-11-13T12:35:24.159Z,12.80
2022-11-13T12:38:07.802Z,12.70
2022-11-13T12:41:00.335Z,12.70
2022-11-13T12:43:49.166Z,12.60
2022-11-13T12:46:16.887Z,12.60
2022-11-13T12:48:46.446Z,12.60
2022-11-13T12:51:16.035Z,12.50
2022-11-13T12:53:50.206Z,12.50
2022-11-13T12:56:32.140Z,12.50
2022-11-13T12:59:31.781Z,12.60
2022-11-13T13:02:18.980Z,12.50
2022-11-13T13:05:13.046Z,12.50
2022-11-13T13:08:02.263Z,12.50
2022-11-13T13:10:55.867Z,12.50
2022-11-13T13:13:37.713Z,12.50
2022-11-13T13:16:06.940Z,12.50
2022-11-13T13:18:36.872Z,12.50
2022-11-13T13:21:08.923Z,12.50
2022-11-13T13:23:41.681Z,12.50
2022-11-13T13:26:22.338Z,12.50
2022-11-13T13:28:57.532Z,12.50
2022-11-13T13:31:49.007Z,12.50
2022-11-13T13:34:34.862Z,12.50
2022-11-13T13:37:35.781Z,12.50
2022-11-13T13:40:08.770Z,12.50
2022-11-13T13:43:12.323Z,12.50
2022-11-13T13:45:50.928Z,12.50
2022-11-13T13:48:21.170Z,12.50
2022-11-13T13:50:50.846Z,12.50
2022-11-13T13:53:26.850Z,12.40
2022-11-13T13:55:57.050Z,12.50
2022-11-13T13:58:44.372Z,12.50
2022-11-13T14:01:25.688Z,12.40
2022-11-13T14:04:17.343Z,12.40
2022-11-13T14:06:53.105Z,12.40
2022-11-13T14:09:25.547Z,12.30
2022-11-13T14:14:49.248Z,12.30
2022-11-13T14:17:25.091Z,12.30
2022-11-13T14:19:53.813Z,12.20
2022-11-13T14:22:22.205Z,12.20
2022-11-13T14:24:58.133Z,12.20
2022-11-13T14:27:27.274Z,12.10
2022-11-13T14:29:57.289Z,12.10
2022-11-13T14:32:32.049Z,12.10
2022-11-13T14:35:02.439Z,12.00
2022-11-13T14:37:37.409Z,12.00
2022-11-13T14:40:30.466Z,11.90
2022-11-13T14:43:03.346Z,11.80
2022-11-13T14:45:32.562Z,11.70
2022-11-13T14:48:19.450Z,11.50
2022-11-13T14:51:16.120Z,11.50
2022-11-13T14:53:42.929Z,11.40
2022-11-13T14:56:12.190Z,11.30
2022-11-13T14:58:47.394Z,11.20
2022-11-13T15:01:25.550Z,11.10
2022-11-13T15:03:53.042Z,11.00
2022-11-13T15:06:22.464Z,10.80
2022-11-13T15:08:51.415Z,10.80
2022-11-13T15:11:21.114Z,10.70
2022-11-13T15:13:49.651Z,10.60
2022-11-13T15:16:29.914Z,10.50
2022-11-13T15:19:06.276Z,10.40
2022-11-13T15:21:33.546Z,10.30
2022-11-13T15:24:01.668Z,10.30
2022-11-13T15:26:29.381Z,10.10
2022-11-13T15:28:56.701Z,10.00
2022-11-13T15:31:29.976Z,10.00
2022-11-13T15:33:56.831Z,9.90
2022-11-13T15:36:23.695Z,9.80
2022-11-13T15:38:50.562Z,9.80
2022-11-13T15:41:23.409Z,9.70
2022-11-13T15:43:53.882Z,9.60
2022-11-13T15:46:23.149Z,9.50
2022-11-13T15:48:51.047Z,9.40
2022-11-13T15:51:44.129Z,9.30
2022-11-13T15:54:25.890Z,9.30
2022-11-13T15:56:53.095Z,9.20
2022-11-13T15:59:20.271Z,9.10
2022-11-13T16:01:48.174Z,9.00
2022-11-13T16:04:16.479Z,9.00
2022-11-13T16:06:44.271Z,9.00
2022-11-13T16:09:14.261Z,8.90
2022-11-13T16:11:42.585Z,8.80
2022-11-13T16:14:09.552Z,8.70
2022-11-13T16:16:39.169Z,8.60
2022-11-13T16:19:13.880Z,8.60
2022-11-13T16:21:40.889Z,8.50
2022-11-13T16:24:09.783Z,8.50
2022-11-13T16:26:36.905Z,8.40
2022-11-13T16:29:19.710Z,8.40
2022-11-13T16:31:47.085Z,8.40
2022-11-13T16:34:14.517Z,8.30
2022-11-13T16:36:42.221Z,8.30
2022-11-13T16:39:15.864Z,8.20
2022-11-13T16:41:42.742Z,8.20
2022-11-13T16:44:09.921Z,8.20
2022-11-13T16:46:41.827Z,8.20
2022-11-13T16:49:20.611Z,8.20
2022-11-13T16:51:47.653Z,8.20
2022-11-13T16:54:15.390Z,8.20
2022-11-13T16:56:42.730Z,8.20
2022-11-13T16:59:11.596Z,8.10
2022-11-13T17:01:38.815Z,8.10
2022-11-13T17:04:06.352Z,8.10
2022-11-13T17:06:36.178Z,8.10
2022-11-13T17:09:04.321Z,8.10
2022-11-13T17:11:33.366Z,8.00
2022-11-13T17:14:02.193Z,8.00
2022-11-13T17:16:31.004Z,8.00
2022-11-13T17:18:59.450Z,7.90
2022-11-13T17:21:29.205Z,7.90
2022-11-13T17:24:01.516Z,7.80
2022-11-13T17:26:29.535Z,7.80
2022-11-13T17:28:58.378Z,7.80
2022-11-13T17:31:25.794Z,7.70
2022-11-13T17:33:54.543Z,7.60
2022-11-13T17:36:22.707Z,7.60
2022-11-13T17:38:52.616Z,7.50
2022-11-13T17:41:20.041Z,7.50
2022-11-13T17:43:50.007Z,7.40
2022-11-13T17:46:18.422Z,7.40
2022-11-13T17:48:45.808Z,7.30
2022-11-13T17:51:15.092Z,7.30
2022-11-13T17:53:42.869Z,7.20
2022-11-13T17:56:12.147Z,7.30
2022-11-13T17:58:44.454Z,7.20
2022-11-13T18:01:16.973Z,7.20
2022-11-13T18:03:47.027Z,7.20
2022-11-13T18:06:19.788Z,7.20
2022-11-13T18:08:47.831Z,7.10
2022-11-13T18:11:23.892Z,7.10
2022-11-13T18:13:52.060Z,7.20
2022-11-13T18:16:25.766Z,7.20
2022-11-13T18:18:55.477Z,7.20
2022-11-13T18:21:32.201Z,7.20
2022-11-13T18:24:01.794Z,7.10
2022-11-13T18:26:32.233Z,7.20
2022-11-13T18:29:02.329Z,7.20
2022-11-13T18:31:30.798Z,7.30
2022-11-13T18:34:05.220Z,7.20
2022-11-13T18:36:34.657Z,7.20
2022-11-13T18:39:03.249Z,7.20
2022-11-13T18:41:30.854Z,7.20
2022-11-13T18:43:57.916Z,7.20
2022-11-13T18:46:25.572Z,7.30
2022-11-13T18:48:52.902Z,7.40
2022-11-13T18:51:24.796Z,7.30
2022-11-13T18:53:53.082Z,7.30
2022-11-13T18:56:28.400Z,7.30
2022-11-13T18:58:57.438Z,7.30
2022-11-13T19:01:27.890Z,7.30
2022-11-13T19:06:44.536Z,7.30
2022-11-13T19:09:14.068Z,7.30
2022-11-13T19:11:41.745Z,7.30
2022-11-13T19:14:10.291Z,7.20
2022-11-13T19:16:39.827Z,7.30
2022-11-13T19:19:14.246Z,7.30
2022-11-13T19:21:41.880Z,7.30
2022-11-13T19:24:10.038Z,7.30
2022-11-13T19:26:37.306Z,7.40
2022-11-13T19:29:04.815Z,7.50
2022-11-13T19:31:32.200Z,7.60
2022-11-13T19:34:06.376Z,7.70
2022-11-13T19:36:34.903Z,7.80
2022-11-13T19:39:02.500Z,7.70
2022-11-13T19:41:30.678Z,7.60
2022-11-13T19:44:01.954Z,7.60
2022-11-13T19:46:30.115Z,7.70
2022-11-13T19:48:57.938Z,7.70
2022-11-13T19:51:27.045Z,7.70
2022-11-13T19:53:59.920Z,7.70
2022-11-13T19:56:28.808Z,7.60
2022-11-13T19:58:56.795Z,7.60
2022-11-13T20:01:26.618Z,7.60
2022-11-13T20:03:58.959Z,7.70
2022-11-13T20:06:27.408Z,7.70
2022-11-13T20:08:54.844Z,7.70
2022-11-13T20:11:22.181Z,7.80
2022-11-13T20:13:49.708Z,7.70
2022-11-13T20:16:17.814Z,7.70
2022-11-13T20:18:44.790Z,7.70
2022-11-13T20:21:12.006Z,7.70
2022-11-13T20:23:39.722Z,7.80
2022-11-13T20:26:10.746Z,7.80
2022-11-13T20:28:38.108Z,7.80
2022-11-13T20:31:21.219Z,7.80
2022-11-13T20:33:50.324Z,7.80
2022-11-13T20:36:18.088Z,7.80
2022-11-13T20:38:50.535Z,7.80
2022-11-13T20:41:20.842Z,7.80
2022-11-13T20:43:49.657Z,7.80
2022-11-13T20:46:18.707Z,7.80
2022-11-13T20:48:47.507Z,7.70
2022-11-13T20:51:20.426Z,7.70
2022-11-13T20:53:48.612Z,7.70
2022-11-13T20:56:16.826Z,7.70
2022-11-13T20:58:44.791Z,7.70
2022-11-13T21:01:23.808Z,7.60
2022-11-13T21:03:51.897Z,7.60
2022-11-13T21:06:22.133Z,7.60
2022-11-13T21:08:49.935Z,7.60
2022-11-13T21:11:33.593Z,7.60
2022-11-13T21:14:01.267Z,7.60
2022-11-13T21:16:28.273Z,7.50
2022-11-13T21:18:57.017Z,7.50
2022-11-13T21:21:26.860Z,7.40
2022-11-13T21:23:56.522Z,7.40
2022-11-13T21:26:27.554Z,7.30
2022-11-13T21:28:56.507Z,7.20
2022-11-13T21:31:24.172Z,7.10
2022-11-13T21:33:51.426Z,7.10
2022-11-13T21:36:19.582Z,7.00
2022-11-13T21:38:48.948Z,7.00
2022-11-13T21:41:23.298Z,7.00
2022-11-13T21:44:00.067Z,7.00
2022-11-13T21:46:29.551Z,7.00
2022-11-13T21:49:05.067Z,6.90
2022-11-13T21:51:33.983Z,7.00
2022-11-13T21:54:01.108Z,7.00
2022-11-13T21:56:29.591Z,7.00
2022-11-13T21:58:56.888Z,7.00
2022-11-13T22:01:25.499Z,7.10
2022-11-13T22:03:52.760Z,7.10
2022-11-13T22:06:21.457Z,7.20
2022-11-13T22:08:55.763Z,7.20
2022-11-13T22:11:24.115Z,7.10
2022-11-13T22:13:51.211Z,7.10
2022-11-13T22:16:18.434Z,7.00
2022-11-13T22:18:45.664Z,7.10
2022-11-13T22:21:14.430Z,7.10
2022-11-13T22:23:41.452Z,7.20
2022-11-13T22:26:11.219Z,7.20
2022-11-13T22:28:41.421Z,7.30
2022-11-13T22:31:13.748Z,7.30
2022-11-13T22:33:45.048Z,7.30
2022-11-13T22:36:18.071Z,7.30
2022-11-13T22:38:45.643Z,7.40
2022-11-13T22:41:22.621Z,7.40
2022-11-13T22:43:52.215Z,7.40
2022-11-13T22:46:22.085Z,7.40
2022-11-13T22:48:51.427Z,7.50
2022-11-13T22:51:32.915Z,7.50
2022-11-13T22:54:01.935Z,7.50
2022-11-13T22:56:30.787Z,7.50
2022-11-13T22:59:01.472Z,7.50
2022-11-13T23:01:31.334Z,7.60
2022-11-13T23:04:00.827Z,7.50
2022-11-13T23:06:30.159Z,7.50
2022-11-13T23:08:57.056Z,7.60
2022-11-13T23:11:42.425Z,7.60
2022-11-13T23:14:12.373Z,7.60
2022-11-13T23:16:39.779Z,7.60
2022-11-13T23:19:06.726Z,7.60
2022-11-13T23:21:33.599Z,7.60
2022-11-13T23:24:00.517Z,7.60
2022-11-13T23:26:28.531Z,7.60
2022-11-13T23:28:55.971Z,7.60
2022-11-13T23:31:22.969Z,7.60
2022-11-13T23:33:49.871Z,7.60
2022-11-13T23:36:18.190Z,7.60
2022-11-13T23:38:45.609Z,7.60
2022-11-13T23:41:13.029Z,7.60
2022-11-13T23:44:08.108Z,7.60
2022-11-13T23:46:26.674Z,7.60
2022-11-13T23:48:53.473Z,7.60
2022-11-13T23:51:20.297Z,7.70
2022-11-13T23:53:47.096Z,7.70
2022-11-13T23:56:13.916Z,7.70
2022-11-13T23:58:40.741Z,7.70
